Alder, Washington
Current Conditions -  °F | °C
As of 9:58 AM on Thursday 23 Oct 2014 (Local Time) from KGRF Reporting Station
Drizzle Drizzle  
Wind Chill: 52°   Ceiling: 7500
Heat Index: 52°   Visibility: 10mi
Dew Point: 51°   Wind: 7mph
Humidity: 96%   Direction: 160°SSE
Pressure: 29.78"   Gusts: NA
Location:  46.8687°N, 122.208°W
Report Text: KGRF 231658Z AUTO 16006KT 10SM DZ BKN075 11/11 A2978 RMK AO2 SLP088 P0000 T01110105 $
Loading
Personal Weather Stations






























Interactive Weather Map
Tropical Storm Tracking
New forecast layout! Learn more

10-Day Weather Forecast

Advertisements
Track Severe Weather on mobile